Camp Dodge, Iowa
Current Conditions -  °F | °C
As of 4:35 AM on Thursday 23 Oct 2014 (Local Time) from KIKV Reporting Station
Overcast Overcast  
Wind Chill: 11°   Ceiling: 9500
Heat Index: 11°   Visibility: 10mi
Dew Point: 10°   Wind: 7mph
Humidity: 94%   Direction: 160°SSE
Pressure: 30.05"   Gusts: NA
Location:  41.689°N, 93.7182°W
Report Text: KIKV 230935Z AUTO 16006KT 10SM OVC095 11/10 A3005 RMK AO2
Loading
Personal Weather Stations






























Interactive Weather Map
Tropical Storm Tracking
New forecast layout! Learn more

10-Day Weather Forecast

Advertisements
Track Severe Weather on mobile